sensor_id;sensor_type;location;lat;lon;timestamp;pressure;altitude;pressure_sealevel;temperature;humidity
52975;BME280;38839;45.186;5.720;2022-08-01T00:00:23;99116.94;;;26.49;38.97
52975;BME280;38839;45.186;5.720;2022-08-01T00:02:48;99118.00;;;26.46;38.97
52975;BME280;38839;45.186;5.720;2022-08-01T00:05:14;99091.56;;;26.29;39.07
52975;BME280;38839;45.186;5.720;2022-08-01T00:07:39;99120.97;;;26.29;39.09
52975;BME280;38839;45.186;5.720;2022-08-01T00:10:10;99113.38;;;26.23;39.61
52975;BME280;38839;45.186;5.720;2022-08-01T00:12:38;99115.09;;;26.24;39.60
52975;BME280;38839;45.186;5.720;2022-08-01T00:15:05;99106.75;;;26.16;39.70
52975;BME280;38839;45.186;5.720;2022-08-01T00:17:31;99107.50;;;26.18;39.82
52975;BME280;38839;45.186;5.720;2022-08-01T00:19:57;99114.00;;;26.14;40.13
52975;BME280;38839;45.186;5.720;2022-08-01T00:22:22;99114.19;;;26.10;40.01
52975;BME280;38839;45.186;5.720;2022-08-01T00:24:47;99118.69;;;26.10;40.09
52975;BME280;38839;45.186;5.720;2022-08-01T00:27:13;99116.34;;;26.05;39.89
52975;BME280;38839;45.186;5.720;2022-08-01T00:29:38;99109.69;;;25.98;40.17
52975;BME280;38839;45.186;5.720;2022-08-01T00:32:04;99117.72;;;25.98;40.50
52975;BME280;38839;45.186;5.720;2022-08-01T00:34:29;99119.63;;;25.96;40.21
52975;BME280;38839;45.186;5.720;2022-08-01T00:36:54;99117.38;;;25.90;40.30
52975;BME280;38839;45.186;5.720;2022-08-01T00:39:20;99121.16;;;25.86;40.67
52975;BME280;38839;45.186;5.720;2022-08-01T00:41:45;99114.53;;;25.79;40.69
52975;BME280;38839;45.186;5.720;2022-08-01T00:44:11;99120.72;;;25.79;40.32
52975;BME280;38839;45.186;5.720;2022-08-01T00:46:36;99120.06;;;25.76;40.78
52975;BME280;38839;45.186;5.720;2022-08-01T00:49:02;99116.84;;;25.70;40.90
52975;BME280;38839;45.186;5.720;2022-08-01T00:51:27;99118.13;;;25.65;41.01
52975;BME280;38839;45.186;5.720;2022-08-01T00:53:53;99123.56;;;25.63;40.81
52975;BME280;38839;45.186;5.720;2022-08-01T00:56:20;99119.72;;;25.40;41.39
52975;BME280;38839;45.186;5.720;2022-08-01T00:58:46;99124.59;;;25.34;41.33
52975;BME280;38839;45.186;5.720;2022-08-01T01:01:12;99121.63;;;25.38;41.08
52975;BME280;38839;45.186;5.720;2022-08-01T01:03:37;99130.63;;;25.37;41.17
52975;BME280;38839;45.186;5.720;2022-08-01T01:08:58;99128.03;;;25.36;41.31
52975;BME280;38839;45.186;5.720;2022-08-01T01:14:27;99132.25;;;25.25;41.23
52975;BME280;38839;45.186;5.720;2022-08-01T01:16:56;99124.41;;;25.22;41.28
52975;BME280;38839;45.186;5.720;2022-08-01T01:19:28;99127.09;;;25.22;41.26
52975;BME280;38839;45.186;5.720;2022-08-01T01:22:35;99135.59;;;25.15;41.41
52975;BME280;38839;45.186;5.720;2022-08-01T01:28:30;99134.84;;;24.98;41.67
52975;BME280;38839;45.186;5.720;2022-08-01T01:30:59;99133.56;;;24.89;41.78
52975;BME280;38839;45.186;5.720;2022-08-01T01:33:27;99136.63;;;24.83;41.89
52975;BME280;38839;45.186;5.720;2022-08-01T01:35:59;99134.72;;;24.85;41.84
52975;BME280;38839;45.186;5.720;2022-08-01T01:38:32;99137.59;;;24.82;41.83
52975;BME280;38839;45.186;5.720;2022-08-01T01:40:59;99138.44;;;24.83;41.92
52975;BME280;38839;45.186;5.720;2022-08-01T01:43:27;99143.09;;;24.79;42.13
52975;BME280;38839;45.186;5.720;2022-08-01T01:45:54;99140.81;;;24.73;42.45
52975;BME280;38839;45.186;5.720;2022-08-01T01:48:23;99136.63;;;24.69;42.54
52975;BME280;38839;45.186;5.720;2022-08-01T01:50:49;99140.56;;;24.63;42.65
52975;BME280;38839;45.186;5.720;2022-08-01T01:53:19;99137.75;;;24.50;42.96
52975;BME280;38839;45.186;5.720;2022-08-01T01:55:47;99138.72;;;24.49;42.83
52975;BME280;38839;45.186;5.720;2022-08-01T01:58:14;99143.16;;;24.49;42.75
52975;BME280;38839;45.186;5.720;2022-08-01T02:00:42;99142.22;;;24.50;43.14
52975;BME280;38839;45.186;5.720;2022-08-01T02:03:11;99144.44;;;24.58;43.05
52975;BME280;38839;45.186;5.720;2022-08-01T02:05:38;99150.53;;;24.60;43.19
52975;BME280;38839;45.186;5.720;2022-08-01T02:08:04;99144.44;;;24.58;43.57
52975;BME280;38839;45.186;5.720;2022-08-01T02:10:32;99152.53;;;24.56;43.72
52975;BME280;38839;45.186;5.720;2022-08-01T02:12:59;99144.53;;;24.56;43.43
52975;BME280;38839;45.186;5.720;2022-08-01T02:15:29;99151.00;;;24.52;44.10
52975;BME280;38839;45.186;5.720;2022-08-01T02:17:56;99145.91;;;24.47;43.73
52975;BME280;38839;45.186;5.720;2022-08-01T02:20:22;99146.78;;;24.48;44.07
52975;BME280;38839;45.186;5.720;2022-08-01T02:22:55;99145.31;;;24.42;44.26
52975;BME280;38839;45.186;5.720;2022-08-01T02:25:27;99146.47;;;24.38;44.72
52975;BME280;38839;45.186;5.720;2022-08-01T02:28:01;99144.16;;;24.32;44.56
52975;BME280;38839;45.186;5.720;2022-08-01T02:30:35;99143.41;;;24.30;44.81
52975;BME280;38839;45.186;5.720;2022-08-01T02:33:20;99155.78;;;24.31;44.98
52975;BME280;38839;45.186;5.720;2022-08-01T02:35:50;99149.09;;;24.24;44.95
52975;BME280;38839;45.186;5.720;2022-08-01T02:38:18;99144.88;;;24.20;44.82
52975;BME280;38839;45.186;5.720;2022-08-01T02:40:47;99157.38;;;24.19;45.01
52975;BME280;38839;45.186;5.720;2022-08-01T02:43:20;99154.63;;;24.21;45.20
52975;BME280;38839;45.186;5.720;2022-08-01T02:45:53;99159.19;;;24.19;45.35
52975;BME280;38839;45.186;5.720;2022-08-01T02:48:21;99147.56;;;24.20;45.14
52975;BME280;38839;45.186;5.720;2022-08-01T02:50:48;99161.56;;;24.23;45.33
52975;BME280;38839;45.186;5.720;2022-08-01T02:53:16;99155.66;;;24.18;45.22
52975;BME280;38839;45.186;5.720;2022-08-01T02:55:43;99156.88;;;24.13;45.14
52975;BME280;38839;45.186;5.720;2022-08-01T02:58:14;99160.75;;;24.07;45.30
52975;BME280;38839;45.186;5.720;2022-08-01T03:00:41;99165.59;;;24.00;45.32
52975;BME280;38839;45.186;5.720;2022-08-01T03:03:08;99159.84;;;23.92;45.33
52975;BME280;38839;45.186;5.720;2022-08-01T03:05:35;99159.53;;;23.82;45.53
52975;BME280;38839;45.186;5.720;2022-08-01T03:08:02;99161.59;;;23.77;45.80
52975;BME280;38839;45.186;5.720;2022-08-01T03:10:28;99155.41;;;23.77;46.08
52975;BME280;38839;45.186;5.720;2022-08-01T03:12:54;99157.44;;;23.72;46.15
52975;BME280;38839;45.186;5.720;2022-08-01T03:15:23;99161.22;;;23.67;46.16
52975;BME280;38839;45.186;5.720;2022-08-01T03:17:50;99158.56;;;23.67;46.66
52975;BME280;38839;45.186;5.720;2022-08-01T03:20:18;99147.56;;;23.58;46.39
52975;BME280;38839;45.186;5.720;2022-08-01T03:22:46;99154.72;;;23.57;46.53
52975;BME280;38839;45.186;5.720;2022-08-01T03:25:15;99154.53;;;23.44;46.73
52975;BME280;38839;45.186;5.720;2022-08-01T03:27:43;99155.41;;;23.45;46.98
52975;BME280;38839;45.186;5.720;2022-08-01T03:30:09;99163.31;;;23.46;46.89
52975;BME280;38839;45.186;5.720;2022-08-01T03:32:35;99158.13;;;23.43;46.97
52975;BME280;38839;45.186;5.720;2022-08-01T03:35:01;99153.84;;;23.41;47.16
52975;BME280;38839;45.186;5.720;2022-08-01T03:37:31;99157.44;;;23.40;47.32
52975;BME280;38839;45.186;5.720;2022-08-01T03:40:35;99155.13;;;23.34;47.97
52975;BME280;38839;45.186;5.720;2022-08-01T03:43:05;99159.84;;;23.28;47.57
52975;BME280;38839;45.186;5.720;2022-08-01T03:45:36;99159.59;;;23.33;47.87
52975;BME280;38839;45.186;5.720;2022-08-01T03:48:09;99162.25;;;23.33;47.58
52975;BME280;38839;45.186;5.720;2022-08-01T03:50:36;99165.00;;;23.32;47.62
52975;BME280;38839;45.186;5.720;2022-08-01T03:53:04;99169.66;;;23.28;47.94
52975;BME280;38839;45.186;5.720;2022-08-01T03:55:32;99168.97;;;23.24;47.55
52975;BME280;38839;45.186;5.720;2022-08-01T03:57:59;99169.28;;;23.18;47.90
52975;BME280;38839;45.186;5.720;2022-08-01T04:00:26;99171.19;;;23.16;47.90
52975;BME280;38839;45.186;5.720;2022-08-01T04:02:53;99169.78;;;23.09;47.90
52975;BME280;38839;45.186;5.720;2022-08-01T04:05:18;99166.53;;;23.04;48.23
52975;BME280;38839;45.186;5.720;2022-08-01T04:07:48;99173.84;;;22.99;48.80
52975;BME280;38839;45.186;5.720;2022-08-01T04:10:25;99170.59;;;22.94;48.68
52975;BME280;38839;45.186;5.720;2022-08-01T04:12:52;99175.28;;;22.88;48.83
52975;BME280;38839;45.186;5.720;2022-08-01T04:15:18;99178.25;;;22.82;49.06
52975;BME280;38839;45.186;5.720;2022-08-01T04:17:45;99182.91;;;22.79;49.29
52975;BME280;38839;45.186;5.720;2022-08-01T04:20:11;99190.19;;;22.75;49.20
52975;BME280;38839;45.186;5.720;2022-08-01T04:22:36;99187.59;;;22.74;49.51
52975;BME280;38839;45.186;5.720;2022-08-01T04:25:06;99189.41;;;22.73;49.62
52975;BME280;38839;45.186;5.720;2022-08-01T04:27:37;99194.81;;;22.72;49.53
52975;BME280;38839;45.186;5.720;2022-08-01T04:30:04;99198.31;;;22.72;49.37
52975;BME280;38839;45.186;5.720;2022-08-01T04:32:33;99196.75;;;22.68;49.57
52975;BME280;38839;45.186;5.720;2022-08-01T04:34:59;99196.59;;;22.71;49.48
52975;BME280;38839;45.186;5.720;2022-08-01T04:37:27;99196.94;;;22.65;49.07
52975;BME280;38839;45.186;5.720;2022-08-01T04:39:54;99196.16;;;22.63;49.48
52975;BME280;38839;45.186;5.720;2022-08-01T04:42:21;99198.03;;;22.61;49.50
52975;BME280;38839;45.186;5.720;2022-08-01T04:44:46;99198.16;;;22.58;49.65
52975;BME280;38839;45.186;5.720;2022-08-01T04:47:12;99195.50;;;22.58;49.56
52975;BME280;38839;45.186;5.720;2022-08-01T04:49:38;99208.47;;;22.64;49.66
52975;BME280;38839;45.186;5.720;2022-08-01T04:52:04;99208.16;;;22.70;49.51
52975;BME280;38839;45.186;5.720;2022-08-01T04:54:33;99208.47;;;22.81;49.26
52975;BME280;38839;45.186;5.720;2022-08-01T04:57:02;99214.41;;;23.04;48.61
52975;BME280;38839;45.186;5.720;2022-08-01T04:59:33;99203.91;;;23.34;48.17
52975;BME280;38839;45.186;5.720;2022-08-01T05:02:13;99212.41;;;23.73;47.00
52975;BME280;38839;45.186;5.720;2022-08-01T05:04:41;99214.34;;;24.02;46.36
52975;BME280;38839;45.186;5.720;2022-08-01T05:07:07;99206.38;;;24.33;45.77
52975;BME280;38839;45.186;5.720;2022-08-01T05:09:33;99208.19;;;24.46;45.35
52975;BME280;38839;45.186;5.720;2022-08-01T05:12:00;99208.50;;;25.01;44.51
52975;BME280;38839;45.186;5.720;2022-08-01T05:14:27;99207.53;;;25.16;43.85
52975;BME280;38839;45.186;5.720;2022-08-01T05:16:53;99207.56;;;25.30;43.56
52975;BME280;38839;45.186;5.720;2022-08-01T05:19:19;99205.84;;;25.44;43.40
52975;BME280;38839;45.186;5.720;2022-08-01T05:21:44;99206.75;;;25.57;43.15
52975;BME280;38839;45.186;5.720;2022-08-01T05:24:10;99205.03;;;25.70;43.14
52975;BME280;38839;45.186;5.720;2022-08-01T05:26:35;99196.88;;;26.01;41.98
52975;BME280;38839;45.186;5.720;2022-08-01T05:29:01;99215.22;;;26.20;41.82
52975;BME280;38839;45.186;5.720;2022-08-01T05:31:26;99213.56;;;26.44;41.59
52975;BME280;38839;45.186;5.720;2022-08-01T05:33:52;99210.50;;;26.76;41.02
52975;BME280;38839;45.186;5.720;2022-08-01T05:36:18;99202.41;;;27.03;40.49
52975;BME280;38839;45.186;5.720;2022-08-01T05:38:43;99196.94;;;27.31;40.03
52975;BME280;38839;45.186;5.720;2022-08-01T05:41:09;99199.25;;;27.35;39.91
52975;BME280;38839;45.186;5.720;2022-08-01T05:43:35;99210.63;;;27.39;39.25
52975;BME280;38839;45.186;5.720;2022-08-01T05:46:00;99203.53;;;27.51;39.30
52975;BME280;38839;45.186;5.720;2022-08-01T05:48:26;99206.69;;;27.68;39.38
52975;BME280;38839;45.186;5.720;2022-08-01T05:50:51;99205.25;;;28.13;38.45
52975;BME280;38839;45.186;5.720;2022-08-01T05:53:18;99207.66;;;28.64;37.07
52975;BME280;38839;45.186;5.720;2022-08-01T05:55:43;99211.19;;;29.34;36.19
52975;BME280;38839;45.186;5.720;2022-08-01T05:58:08;99216.91;;;30.50;33.84
52975;BME280;38839;45.186;5.720;2022-08-01T06:00:34;99207.00;;;31.44;32.40
52975;BME280;38839;45.186;5.720;2022-08-01T06:02:59;99210.75;;;31.82;31.54
52975;BME280;38839;45.186;5.720;2022-08-01T06:05:24;99202.53;;;32.81;30.19
52975;BME280;38839;45.186;5.720;2022-08-01T06:07:50;99211.44;;;33.21;28.84
52975;BME280;38839;45.186;5.720;2022-08-01T06:10:15;99205.53;;;33.35;28.98
52975;BME280;38839;45.186;5.720;2022-08-01T06:12:40;99208.03;;;32.99;29.46
52975;BME280;38839;45.186;5.720;2022-08-01T06:15:06;99210.28;;;30.75;32.54
52975;BME280;38839;45.186;5.720;2022-08-01T06:17:32;99216.75;;;28.26;37.21
52975;BME280;38839;45.186;5.720;2022-08-01T06:19:57;99211.88;;;27.46;38.99
52975;BME280;38839;45.186;5.720;2022-08-01T06:22:23;99216.47;;;26.54;40.80
52975;BME280;38839;45.186;5.720;2022-08-01T06:24:48;99217.38;;;26.27;41.19
52975;BME280;38839;45.186;5.720;2022-08-01T06:27:14;99223.25;;;26.33;40.69
52975;BME280;38839;45.186;5.720;2022-08-01T06:29:39;99218.78;;;27.12;39.24
52975;BME280;38839;45.186;5.720;2022-08-01T06:32:05;99209.88;;;28.11;37.75
52975;BME280;38839;45.186;5.720;2022-08-01T06:34:32;99218.84;;;29.04;35.77
52975;BME280;38839;45.186;5.720;2022-08-01T06:36:57;99214.56;;;29.47;35.11
52975;BME280;38839;45.186;5.720;2022-08-01T06:39:23;99216.19;;;30.48;33.70
52975;BME280;38839;45.186;5.720;2022-08-01T06:41:48;99213.22;;;31.14;32.70
52975;BME280;38839;45.186;5.720;2022-08-01T06:44:13;99209.75;;;31.74;31.82
52975;BME280;38839;45.186;5.720;2022-08-01T06:46:39;99213.22;;;31.14;32.50
52975;BME280;38839;45.186;5.720;2022-08-01T06:49:04;99211.09;;;28.77;36.16
52975;BME280;38839;45.186;5.720;2022-08-01T06:51:30;99210.94;;;27.47;39.09
52975;BME280;38839;45.186;5.720;2022-08-01T06:53:55;99208.19;;;27.23;39.53
52975;BME280;38839;45.186;5.720;2022-08-01T06:56:21;99211.19;;;27.05;39.83
52975;BME280;38839;45.186;5.720;2022-08-01T06:58:46;99209.75;;;26.74;39.96
52975;BME280;38839;45.186;5.720;2022-08-01T07:01:12;99214.16;;;26.62;40.11
52975;BME280;38839;45.186;5.720;2022-08-01T07:03:37;99217.63;;;26.50;40.44
52975;BME280;38839;45.186;5.720;2022-08-01T07:06:03;99213.34;;;26.47;40.82
52975;BME280;38839;45.186;5.720;2022-08-01T07:08:28;99210.19;;;27.06;39.49
52975;BME280;38839;45.186;5.720;2022-08-01T07:10:54;99207.91;;;28.72;36.52
52975;BME280;38839;45.186;5.720;2022-08-01T07:13:19;99214.00;;;30.09;34.36
52975;BME280;38839;45.186;5.720;2022-08-01T07:15:48;99212.25;;;30.73;32.60
52975;BME280;38839;45.186;5.720;2022-08-01T07:18:13;99211.69;;;32.41;30.80
52975;BME280;38839;45.186;5.720;2022-08-01T07:20:39;99210.34;;;32.94;28.98
52975;BME280;38839;45.186;5.720;2022-08-01T07:23:04;99206.38;;;32.88;29.26
52975;BME280;38839;45.186;5.720;2022-08-01T07:25:29;99208.41;;;32.67;29.60
52975;BME280;38839;45.186;5.720;2022-08-01T07:27:55;99211.22;;;31.87;31.00
52975;BME280;38839;45.186;5.720;2022-08-01T07:30:20;99217.16;;;30.68;32.59
52975;BME280;38839;45.186;5.720;2022-08-01T07:32:46;99208.34;;;30.66;32.61
52975;BME280;38839;45.186;5.720;2022-08-01T07:35:11;99210.59;;;29.96;33.61
52975;BME280;38839;45.186;5.720;2022-08-01T07:37:37;99211.13;;;30.22;32.95
52975;BME280;38839;45.186;5.720;2022-08-01T07:40:03;99203.78;;;30.57;32.36
52975;BME280;38839;45.186;5.720;2022-08-01T07:42:29;99201.28;;;32.46;29.82
52975;BME280;38839;45.186;5.720;2022-08-01T07:44:54;99197.66;;;33.42;27.89
52975;BME280;38839;45.186;5.720;2022-08-01T07:47:24;99198.47;;;34.52;26.15
52975;BME280;38839;45.186;5.720;2022-08-01T07:49:50;99201.16;;;31.99;28.85
52975;BME280;38839;45.186;5.720;2022-08-01T07:52:16;99205.13;;;31.14;30.33
52975;BME280;38839;45.186;5.720;2022-08-01T07:54:41;99200.63;;;30.19;32.06
52975;BME280;38839;45.186;5.720;2022-08-01T07:57:06;99201.53;;;29.31;33.55
52975;BME280;38839;45.186;5.720;2022-08-01T07:59:32;99193.34;;;29.44;33.43
52975;BME280;38839;45.186;5.720;2022-08-01T08:01:58;99197.72;;;29.56;33.30
52975;BME280;38839;45.186;5.720;2022-08-01T08:04:23;99189.41;;;29.48;32.96
52975;BME280;38839;45.186;5.720;2022-08-01T08:06:50;99179.41;;;29.39;33.37
52975;BME280;38839;45.186;5.720;2022-08-01T08:09:16;99180.78;;;29.88;32.78
52975;BME280;38839;45.186;5.720;2022-08-01T08:11:42;99184.69;;;30.27;32.05
52975;BME280;38839;45.186;5.720;2022-08-01T08:14:08;99185.84;;;30.67;31.45
52975;BME280;38839;45.186;5.720;2022-08-01T08:16:34;99180.38;;;30.78;31.10
52975;BME280;38839;45.186;5.720;2022-08-01T08:18:59;99176.81;;;30.99;30.63
52975;BME280;38839;45.186;5.720;2022-08-01T08:21:24;99184.47;;;30.19;31.65
52975;BME280;38839;45.186;5.720;2022-08-01T08:23:50;99180.72;;;29.78;32.50
52975;BME280;38839;45.186;5.720;2022-08-01T08:26:34;99173.53;;;29.45;32.90
52975;BME280;38839;45.186;5.720;2022-08-01T08:28:59;99179.63;;;29.47;33.25
52975;BME280;38839;45.186;5.720;2022-08-01T08:31:24;99174.97;;;29.60;32.97
52975;BME280;38839;45.186;5.720;2022-08-01T08:33:50;99169.38;;;29.41;33.28
52975;BME280;38839;45.186;5.720;2022-08-01T08:36:15;99174.25;;;29.58;32.90
52975;BME280;38839;45.186;5.720;2022-08-01T08:38:41;99164.94;;;29.62;33.35
52975;BME280;38839;45.186;5.720;2022-08-01T08:41:07;99175.25;;;30.33;32.07
52975;BME280;38839;45.186;5.720;2022-08-01T08:43:34;99168.78;;;30.57;31.38
52975;BME280;38839;45.186;5.720;2022-08-01T08:46:01;99169.22;;;30.62;31.36
52975;BME280;38839;45.186;5.720;2022-08-01T08:48:26;99163.00;;;30.08;32.24
52975;BME280;38839;45.186;5.720;2022-08-01T08:50:52;99164.31;;;30.14;32.29
52975;BME280;38839;45.186;5.720;2022-08-01T08:53:18;99168.28;;;30.52;31.49
52975;BME280;38839;45.186;5.720;2022-08-01T08:55:44;99153.88;;;30.53;31.62
52975;BME280;38839;45.186;5.720;2022-08-01T08:58:12;99147.53;;;31.15;30.99
52975;BME280;38839;45.186;5.720;2022-08-01T09:00:39;99150.75;;;30.99;30.94
52975;BME280;38839;45.186;5.720;2022-08-01T09:03:05;99143.78;;;30.97;31.05
52975;BME280;38839;45.186;5.720;2022-08-01T09:05:31;99146.59;;;30.74;31.57
52975;BME280;38839;45.186;5.720;2022-08-01T09:07:57;99143.34;;;30.92;31.22
52975;BME280;38839;45.186;5.720;2022-08-01T09:10:22;99139.84;;;30.80;31.05
52975;BME280;38839;45.186;5.720;2022-08-01T09:13:06;99139.94;;;30.90;31.08
52975;BME280;38839;45.186;5.720;2022-08-01T09:15:40;99139.44;;;31.05;31.33
52975;BME280;38839;45.186;5.720;2022-08-01T09:18:06;99140.66;;;30.92;31.31
52975;BME280;38839;45.186;5.720;2022-08-01T09:20:32;99144.13;;;31.13;31.06
52975;BME280;38839;45.186;5.720;2022-08-01T09:22:59;99134.94;;;31.25;30.97
52975;BME280;38839;45.186;5.720;2022-08-01T09:25:25;99135.81;;;31.26;30.98
52975;BME280;38839;45.186;5.720;2022-08-01T09:28:05;99145.53;;;31.48;30.00
52975;BME280;38839;45.186;5.720;2022-08-01T09:30:37;99134.97;;;31.35;30.15
52975;BME280;38839;45.186;5.720;2022-08-01T09:33:04;99139.53;;;31.35;30.51
52975;BME280;38839;45.186;5.720;2022-08-01T09:35:34;99136.91;;;31.23;30.43
52975;BME280;38839;45.186;5.720;2022-08-01T09:38:20;99134.78;;;31.17;30.68
52975;BME280;38839;45.186;5.720;2022-08-01T09:40:54;99124.44;;;31.22;30.47
52975;BME280;38839;45.186;5.720;2022-08-01T09:43:21;99125.53;;;31.10;30.48
52975;BME280;38839;45.186;5.720;2022-08-01T09:45:47;99124.38;;;31.03;30.15
52975;BME280;38839;45.186;5.720;2022-08-01T09:48:14;99118.59;;;30.86;30.66
52975;BME280;38839;45.186;5.720;2022-08-01T09:50:49;99120.97;;;31.01;30.48
52975;BME280;38839;45.186;5.720;2022-08-01T09:53:16;99113.66;;;31.22;30.31
52975;BME280;38839;45.186;5.720;2022-08-01T09:55:42;99112.53;;;31.25;30.11
52975;BME280;38839;45.186;5.720;2022-08-01T09:58:08;99115.69;;;31.40;29.98
52975;BME280;38839;45.186;5.720;2022-08-01T10:00:36;99105.09;;;30.98;30.27
52975;BME280;38839;45.186;5.720;2022-08-01T10:03:22;99104.53;;;30.73;30.64
52975;BME280;38839;45.186;5.720;2022-08-01T10:05:48;99101.94;;;30.93;30.93
52975;BME280;38839;45.186;5.720;2022-08-01T10:08:14;99094.31;;;30.98;30.42
52975;BME280;38839;45.186;5.720;2022-08-01T10:10:40;99095.34;;;30.85;30.52
52975;BME280;38839;45.186;5.720;2022-08-01T10:13:06;99092.75;;;30.74;30.56
52975;BME280;38839;45.186;5.720;2022-08-01T10:15:33;99083.94;;;30.72;31.02
52975;BME280;38839;45.186;5.720;2022-08-01T10:18:01;99082.66;;;30.87;30.60
52975;BME280;38839;45.186;5.720;2022-08-01T10:20:30;99086.09;;;30.99;30.38
52975;BME280;38839;45.186;5.720;2022-08-01T10:23:01;99082.81;;;30.96;30.53
52975;BME280;38839;45.186;5.720;2022-08-01T10:25:29;99083.69;;;30.75;30.94
52975;BME280;38839;45.186;5.720;2022-08-01T10:27:59;99079.81;;;30.37;31.88
52975;BME280;38839;45.186;5.720;2022-08-01T10:30:26;99076.03;;;30.80;31.04
52975;BME280;38839;45.186;5.720;2022-08-01T10:32:52;99073.00;;;30.95;30.54
52975;BME280;38839;45.186;5.720;2022-08-01T10:35:18;99071.91;;;31.07;30.71
52975;BME280;38839;45.186;5.720;2022-08-01T10:37:45;99058.81;;;30.93;31.28
52975;BME280;38839;45.186;5.720;2022-08-01T10:40:13;99055.59;;;30.99;31.00
52975;BME280;38839;45.186;5.720;2022-08-01T10:42:40;99052.53;;;30.82;31.41
52975;BME280;38839;45.186;5.720;2022-08-01T10:45:07;99044.81;;;30.58;31.41
52975;BME280;38839;45.186;5.720;2022-08-01T10:50:44;99028.81;;;31.07;30.86
52975;BME280;38839;45.186;5.720;2022-08-01T10:53:15;99029.28;;;31.32;30.24
52975;BME280;38839;45.186;5.720;2022-08-01T10:58:20;99026.09;;;31.07;30.44
52975;BME280;38839;45.186;5.720;2022-08-01T11:00:46;99026.78;;;30.90;30.76
52975;BME280;38839;45.186;5.720;2022-08-01T11:03:11;99029.16;;;30.83;30.59
52975;BME280;38839;45.186;5.720;2022-08-01T11:05:36;99023.91;;;30.81;30.67
52975;BME280;38839;45.186;5.720;2022-08-01T11:08:09;99013.91;;;30.93;30.14
52975;BME280;38839;45.186;5.720;2022-08-01T11:10:39;99013.31;;;30.90;30.44
52975;BME280;38839;45.186;5.720;2022-08-01T11:13:05;99013.84;;;30.83;30.26
52975;BME280;38839;45.186;5.720;2022-08-01T11:15:34;99007.38;;;30.96;30.13
52975;BME280;38839;45.186;5.720;2022-08-01T11:18:02;99009.69;;;31.10;30.12
52975;BME280;38839;45.186;5.720;2022-08-01T11:20:32;99003.56;;;30.98;29.84
52975;BME280;38839;45.186;5.720;2022-08-01T11:25:23;99001.31;;;31.13;29.88
52975;BME280;38839;45.186;5.720;2022-08-01T11:31:24;98983.19;;;31.35;29.34
52975;BME280;38839;45.186;5.720;2022-08-01T11:38:46;98975.81;;;31.37;29.22
52975;BME280;38839;45.186;5.720;2022-08-01T11:41:14;98975.50;;;31.40;28.93
52975;BME280;38839;45.186;5.720;2022-08-01T11:44:03;98966.72;;;31.38;28.58
52975;BME280;38839;45.186;5.720;2022-08-01T11:52:10;98963.03;;;31.58;28.16
52975;BME280;38839;45.186;5.720;2022-08-01T11:54:39;98951.41;;;31.58;28.33
52975;BME280;38839;45.186;5.720;2022-08-01T11:57:07;98950.56;;;31.57;28.05
52975;BME280;38839;45.186;5.720;2022-08-01T11:59:45;98941.75;;;31.65;28.28
52975;BME280;38839;45.186;5.720;2022-08-01T12:07:13;98932.41;;;31.59;27.82
52975;BME280;38839;45.186;5.720;2022-08-01T12:09:39;98934.78;;;31.72;28.01
52975;BME280;38839;45.186;5.720;2022-08-01T12:12:05;98932.78;;;31.74;27.77
52975;BME280;38839;45.186;5.720;2022-08-01T12:14:30;98931.81;;;31.65;27.25
52975;BME280;38839;45.186;5.720;2022-08-01T12:16:56;98932.22;;;31.71;27.28
52975;BME280;38839;45.186;5.720;2022-08-01T12:19:23;98931.50;;;31.68;27.43
52975;BME280;38839;45.186;5.720;2022-08-01T12:24:36;98917.56;;;31.83;27.55
52975;BME280;38839;45.186;5.720;2022-08-01T12:27:03;98918.84;;;31.88;27.14
52975;BME280;38839;45.186;5.720;2022-08-01T12:32:00;98916.41;;;32.05;26.69
52975;BME280;38839;45.186;5.720;2022-08-01T12:34:28;98926.63;;;32.01;26.44
52975;BME280;38839;45.186;5.720;2022-08-01T12:36:58;98923.22;;;31.99;26.38
52975;BME280;38839;45.186;5.720;2022-08-01T12:39:33;98918.28;;;31.85;26.37
52975;BME280;38839;45.186;5.720;2022-08-01T12:41:59;98927.34;;;31.94;26.84
52975;BME280;38839;45.186;5.720;2022-08-01T12:44:27;98918.97;;;32.06;26.37
52975;BME280;38839;45.186;5.720;2022-08-01T12:46:54;98924.59;;;32.13;26.74
52975;BME280;38839;45.186;5.720;2022-08-01T12:49:20;98925.72;;;32.20;26.58
52975;BME280;38839;45.186;5.720;2022-08-01T12:51:45;98919.06;;;32.15;26.56
52975;BME280;38839;45.186;5.720;2022-08-01T12:54:11;98914.22;;;32.18;26.42
52975;BME280;38839;45.186;5.720;2022-08-01T12:56:36;98907.84;;;32.10;26.58
52975;BME280;38839;45.186;5.720;2022-08-01T12:59:02;98905.84;;;32.12;26.33
52975;BME280;38839;45.186;5.720;2022-08-01T13:01:44;98901.59;;;32.19;26.61
52975;BME280;38839;45.186;5.720;2022-08-01T13:04:10;98892.75;;;32.26;25.73
52975;BME280;38839;45.186;5.720;2022-08-01T13:06:35;98899.06;;;32.07;26.16
52975;BME280;38839;45.186;5.720;2022-08-01T13:09:08;98909.56;;;32.11;26.51
52975;BME280;38839;45.186;5.720;2022-08-01T13:11:35;98901.84;;;32.16;26.50
52975;BME280;38839;45.186;5.720;2022-08-01T13:14:01;98900.44;;;32.21;26.29
52975;BME280;38839;45.186;5.720;2022-08-01T13:16:27;98902.97;;;32.23;26.35
52975;BME280;38839;45.186;5.720;2022-08-01T13:18:54;98898.66;;;32.30;25.34
52975;BME280;38839;45.186;5.720;2022-08-01T13:21:27;98897.28;;;32.26;25.34
52975;BME280;38839;45.186;5.720;2022-08-01T13:24:09;98895.53;;;32.35;25.35
52975;BME280;38839;45.186;5.720;2022-08-01T13:29:10;98897.81;;;32.30;25.04
52975;BME280;38839;45.186;5.720;2022-08-01T13:31:37;98894.97;;;32.31;24.97
52975;BME280;38839;45.186;5.720;2022-08-01T13:34:03;98888.38;;;32.43;24.54
52975;BME280;38839;45.186;5.720;2022-08-01T13:36:29;98893.19;;;32.50;24.22
52975;BME280;38839;45.186;5.720;2022-08-01T13:38:56;98895.03;;;32.49;24.26
52975;BME280;38839;45.186;5.720;2022-08-01T13:41:40;98883.16;;;32.32;23.56
52975;BME280;38839;45.186;5.720;2022-08-01T13:44:05;98887.78;;;32.50;24.22
52975;BME280;38839;45.186;5.720;2022-08-01T13:46:34;98880.09;;;32.55;23.84